sensor_id;sensor_type;location;lat;lon;timestamp;P1;durP1;ratioP1;P2;durP2;ratioP2
4278;SDS011;2153;47.744;10.580;2023-11-22T00:02:22;32.63;;;15.30;;
4278;SDS011;2153;47.744;10.580;2023-11-22T00:04:52;38.53;;;15.00;;
4278;SDS011;2153;47.744;10.580;2023-11-22T00:07:19;34.10;;;16.47;;
4278;SDS011;2153;47.744;10.580;2023-11-22T00:09:46;35.43;;;16.63;;
4278;SDS011;2153;47.744;10.580;2023-11-22T00:12:14;37.00;;;17.30;;
4278;SDS011;2153;47.744;10.580;2023-11-22T00:14:42;33.93;;;17.53;;
4278;SDS011;2153;47.744;10.580;2023-11-22T00:17:09;33.77;;;16.50;;
4278;SDS011;2153;47.744;10.580;2023-11-22T00:19:36;38.20;;;17.97;;
4278;SDS011;2153;47.744;10.580;2023-11-22T00:22:03;42.37;;;16.57;;
4278;SDS011;2153;47.744;10.580;2023-11-22T00:24:38;30.10;;;15.67;;
4278;SDS011;2153;47.744;10.580;2023-11-22T00:27:04;35.90;;;17.17;;
4278;SDS011;2153;47.744;10.580;2023-11-22T00:29:33;37.53;;;17.20;;
4278;SDS011;2153;47.744;10.580;2023-11-22T00:32:00;35.73;;;18.10;;
4278;SDS011;2153;47.744;10.580;2023-11-22T00:34:26;33.97;;;15.43;;
4278;SDS011;2153;47.744;10.580;2023-11-22T00:36:53;35.87;;;16.43;;
4278;SDS011;2153;47.744;10.580;2023-11-22T00:39:20;31.27;;;15.30;;
4278;SDS011;2153;47.744;10.580;2023-11-22T00:41:47;33.20;;;15.47;;
4278;SDS011;2153;47.744;10.580;2023-11-22T00:44:14;37.73;;;14.33;;
4278;SDS011;2153;47.744;10.580;2023-11-22T00:46:42;36.17;;;16.93;;
4278;SDS011;2153;47.744;10.580;2023-11-22T00:49:10;33.23;;;15.37;;
4278;SDS011;2153;47.744;10.580;2023-11-22T00:51:38;33.03;;;14.87;;
4278;SDS011;2153;47.744;10.580;2023-11-22T00:54:05;30.60;;;15.40;;
4278;SDS011;2153;47.744;10.580;2023-11-22T00:56:32;33.73;;;14.60;;
4278;SDS011;2153;47.744;10.580;2023-11-22T00:58:58;43.53;;;15.67;;
4278;SDS011;2153;47.744;10.580;2023-11-22T01:01:27;30.73;;;14.33;;
4278;SDS011;2153;47.744;10.580;2023-11-22T01:03:55;30.30;;;13.97;;
4278;SDS011;2153;47.744;10.580;2023-11-22T01:06:22;33.57;;;15.50;;
4278;SDS011;2153;47.744;10.580;2023-11-22T01:08:49;28.37;;;13.83;;
4278;SDS011;2153;47.744;10.580;2023-11-22T01:11:15;36.03;;;14.50;;
4278;SDS011;2153;47.744;10.580;2023-11-22T01:13:42;30.70;;;13.73;;
4278;SDS011;2153;47.744;10.580;2023-11-22T01:16:09;33.93;;;14.10;;
4278;SDS011;2153;47.744;10.580;2023-11-22T01:18:37;39.47;;;14.70;;
4278;SDS011;2153;47.744;10.580;2023-11-22T01:21:05;32.50;;;13.97;;
4278;SDS011;2153;47.744;10.580;2023-11-22T01:23:33;32.40;;;14.70;;
4278;SDS011;2153;47.744;10.580;2023-11-22T01:26:00;30.53;;;13.70;;
4278;SDS011;2153;47.744;10.580;2023-11-22T01:28:28;35.07;;;14.40;;
4278;SDS011;2153;47.744;10.580;2023-11-22T01:30:59;32.83;;;14.80;;
4278;SDS011;2153;47.744;10.580;2023-11-22T01:33:26;31.80;;;15.20;;
4278;SDS011;2153;47.744;10.580;2023-11-22T01:35:53;32.13;;;14.47;;
4278;SDS011;2153;47.744;10.580;2023-11-22T01:38:21;33.77;;;15.50;;
4278;SDS011;2153;47.744;10.580;2023-11-22T01:40:48;31.60;;;14.40;;
4278;SDS011;2153;47.744;10.580;2023-11-22T01:43:17;33.50;;;14.33;;
4278;SDS011;2153;47.744;10.580;2023-11-22T01:45:45;32.60;;;14.93;;
4278;SDS011;2153;47.744;10.580;2023-11-22T01:48:11;36.07;;;15.00;;
4278;SDS011;2153;47.744;10.580;2023-11-22T01:50:39;31.43;;;14.00;;
4278;SDS011;2153;47.744;10.580;2023-11-22T01:53:06;37.30;;;15.53;;
4278;SDS011;2153;47.744;10.580;2023-11-22T01:55:35;34.83;;;14.40;;
4278;SDS011;2153;47.744;10.580;2023-11-22T01:58:02;33.87;;;16.70;;
4278;SDS011;2153;47.744;10.580;2023-11-22T02:00:30;32.80;;;15.23;;
4278;SDS011;2153;47.744;10.580;2023-11-22T02:03:01;31.40;;;15.33;;
4278;SDS011;2153;47.744;10.580;2023-11-22T02:05:28;36.20;;;15.77;;
4278;SDS011;2153;47.744;10.580;2023-11-22T02:07:55;39.40;;;16.50;;
4278;SDS011;2153;47.744;10.580;2023-11-22T02:10:23;33.73;;;15.33;;
4278;SDS011;2153;47.744;10.580;2023-11-22T02:12:51;36.47;;;16.17;;
4278;SDS011;2153;47.744;10.580;2023-11-22T02:15:18;43.13;;;14.33;;
4278;SDS011;2153;47.744;10.580;2023-11-22T02:17:44;29.33;;;12.97;;
4278;SDS011;2153;47.744;10.580;2023-11-22T02:20:11;26.67;;;12.40;;
4278;SDS011;2153;47.744;10.580;2023-11-22T02:22:42;26.47;;;12.00;;
4278;SDS011;2153;47.744;10.580;2023-11-22T02:25:11;27.33;;;11.83;;
4278;SDS011;2153;47.744;10.580;2023-11-22T02:27:38;23.10;;;9.73;;
4278;SDS011;2153;47.744;10.580;2023-11-22T02:30:05;25.83;;;9.60;;
4278;SDS011;2153;47.744;10.580;2023-11-22T02:32:32;25.13;;;9.97;;
4278;SDS011;2153;47.744;10.580;2023-11-22T02:34:59;21.83;;;9.37;;
4278;SDS011;2153;47.744;10.580;2023-11-22T02:37:26;29.13;;;9.13;;
4278;SDS011;2153;47.744;10.580;2023-11-22T02:39:54;27.60;;;10.90;;
4278;SDS011;2153;47.744;10.580;2023-11-22T02:42:26;23.30;;;9.67;;
4278;SDS011;2153;47.744;10.580;2023-11-22T02:44:52;27.53;;;10.97;;
4278;SDS011;2153;47.744;10.580;2023-11-22T02:47:19;27.47;;;10.50;;
4278;SDS011;2153;47.744;10.580;2023-11-22T02:49:45;34.53;;;10.10;;
4278;SDS011;2153;47.744;10.580;2023-11-22T02:52:12;25.20;;;10.80;;
4278;SDS011;2153;47.744;10.580;2023-11-22T02:54:40;29.10;;;11.63;;
4278;SDS011;2153;47.744;10.580;2023-11-22T02:57:08;28.40;;;12.67;;
4278;SDS011;2153;47.744;10.580;2023-11-22T02:59:36;26.03;;;11.13;;
4278;SDS011;2153;47.744;10.580;2023-11-22T03:02:03;27.17;;;11.53;;
4278;SDS011;2153;47.744;10.580;2023-11-22T03:04:30;25.97;;;11.30;;
4278;SDS011;2153;47.744;10.580;2023-11-22T03:06:57;37.73;;;13.87;;
4278;SDS011;2153;47.744;10.580;2023-11-22T03:09:23;32.80;;;13.10;;
4278;SDS011;2153;47.744;10.580;2023-11-22T03:11:51;38.83;;;14.70;;
4278;SDS011;2153;47.744;10.580;2023-11-22T03:14:17;39.40;;;13.87;;
4278;SDS011;2153;47.744;10.580;2023-11-22T03:16:46;32.33;;;16.33;;
4278;SDS011;2153;47.744;10.580;2023-11-22T03:19:12;35.63;;;14.43;;
4278;SDS011;2153;47.744;10.580;2023-11-22T03:21:39;35.57;;;14.13;;
4278;SDS011;2153;47.744;10.580;2023-11-22T03:24:06;41.17;;;14.50;;
4278;SDS011;2153;47.744;10.580;2023-11-22T03:26:33;30.90;;;14.13;;
4278;SDS011;2153;47.744;10.580;2023-11-22T03:29:00;32.70;;;13.83;;
4278;SDS011;2153;47.744;10.580;2023-11-22T03:31:27;39.53;;;17.10;;
4278;SDS011;2153;47.744;10.580;2023-11-22T03:33:56;37.83;;;15.17;;
4278;SDS011;2153;47.744;10.580;2023-11-22T03:36:23;30.80;;;14.30;;
4278;SDS011;2153;47.744;10.580;2023-11-22T03:38:50;51.90;;;14.07;;
4278;SDS011;2153;47.744;10.580;2023-11-22T03:41:17;35.57;;;15.07;;
4278;SDS011;2153;47.744;10.580;2023-11-22T03:43:43;34.37;;;14.20;;
4278;SDS011;2153;47.744;10.580;2023-11-22T03:46:10;35.40;;;14.30;;
4278;SDS011;2153;47.744;10.580;2023-11-22T03:48:37;32.20;;;13.80;;
4278;SDS011;2153;47.744;10.580;2023-11-22T03:51:05;30.70;;;13.90;;
4278;SDS011;2153;47.744;10.580;2023-11-22T03:53:31;31.73;;;13.80;;
4278;SDS011;2153;47.744;10.580;2023-11-22T03:55:58;30.43;;;14.97;;
4278;SDS011;2153;47.744;10.580;2023-11-22T03:58:25;40.17;;;14.60;;
4278;SDS011;2153;47.744;10.580;2023-11-22T04:00:51;38.13;;;15.63;;
4278;SDS011;2153;47.744;10.580;2023-11-22T04:03:18;29.77;;;14.50;;
4278;SDS011;2153;47.744;10.580;2023-11-22T04:05:45;32.40;;;14.67;;
4278;SDS011;2153;47.744;10.580;2023-11-22T04:08:13;31.27;;;14.27;;
4278;SDS011;2153;47.744;10.580;2023-11-22T04:10:40;34.20;;;15.80;;
4278;SDS011;2153;47.744;10.580;2023-11-22T04:13:07;35.90;;;15.87;;
4278;SDS011;2153;47.744;10.580;2023-11-22T04:15:34;36.47;;;14.97;;
4278;SDS011;2153;47.744;10.580;2023-11-22T04:18:00;39.70;;;14.63;;
4278;SDS011;2153;47.744;10.580;2023-11-22T04:20:27;35.37;;;15.27;;
4278;SDS011;2153;47.744;10.580;2023-11-22T04:22:54;34.23;;;14.63;;
4278;SDS011;2153;47.744;10.580;2023-11-22T04:25:22;28.40;;;13.20;;
4278;SDS011;2153;47.744;10.580;2023-11-22T04:27:48;31.17;;;14.30;;
4278;SDS011;2153;47.744;10.580;2023-11-22T04:30:15;29.27;;;12.63;;
4278;SDS011;2153;47.744;10.580;2023-11-22T04:32:42;30.50;;;12.83;;
4278;SDS011;2153;47.744;10.580;2023-11-22T04:35:09;26.93;;;11.50;;
4278;SDS011;2153;47.744;10.580;2023-11-22T04:37:36;18.50;;;6.00;;
4278;SDS011;2153;47.744;10.580;2023-11-22T04:40:03;15.60;;;5.50;;
4278;SDS011;2153;47.744;10.580;2023-11-22T04:42:34;13.90;;;3.90;;
4278;SDS011;2153;47.744;10.580;2023-11-22T04:45:01;12.63;;;4.20;;
4278;SDS011;2153;47.744;10.580;2023-11-22T04:47:28;14.37;;;3.63;;
4278;SDS011;2153;47.744;10.580;2023-11-22T04:49:55;14.47;;;3.00;;
4278;SDS011;2153;47.744;10.580;2023-11-22T04:52:22;13.43;;;3.50;;
4278;SDS011;2153;47.744;10.580;2023-11-22T04:54:48;12.77;;;3.37;;
4278;SDS011;2153;47.744;10.580;2023-11-22T04:57:15;13.17;;;4.20;;
4278;SDS011;2153;47.744;10.580;2023-11-22T04:59:43;15.30;;;4.70;;
4278;SDS011;2153;47.744;10.580;2023-11-22T05:02:11;14.63;;;4.80;;
4278;SDS011;2153;47.744;10.580;2023-11-22T05:04:38;21.03;;;6.40;;
4278;SDS011;2153;47.744;10.580;2023-11-22T05:07:04;15.00;;;5.20;;
4278;SDS011;2153;47.744;10.580;2023-11-22T05:09:31;18.63;;;5.60;;
4278;SDS011;2153;47.744;10.580;2023-11-22T05:11:58;19.37;;;4.97;;
4278;SDS011;2153;47.744;10.580;2023-11-22T05:14:25;19.20;;;5.27;;
4278;SDS011;2153;47.744;10.580;2023-11-22T05:16:53;37.03;;;6.10;;
4278;SDS011;2153;47.744;10.580;2023-11-22T05:19:21;27.63;;;6.13;;
4278;SDS011;2153;47.744;10.580;2023-11-22T05:21:48;21.80;;;6.10;;
4278;SDS011;2153;47.744;10.580;2023-11-22T05:24:15;22.33;;;5.83;;
4278;SDS011;2153;47.744;10.580;2023-11-22T05:26:41;16.03;;;6.07;;
4278;SDS011;2153;47.744;10.580;2023-11-22T05:29:08;15.97;;;5.50;;
4278;SDS011;2153;47.744;10.580;2023-11-22T05:31:35;14.90;;;5.00;;
4278;SDS011;2153;47.744;10.580;2023-11-22T05:34:04;17.80;;;5.67;;
4278;SDS011;2153;47.744;10.580;2023-11-22T05:36:30;15.90;;;5.37;;
4278;SDS011;2153;47.744;10.580;2023-11-22T05:38:57;15.80;;;5.93;;
4278;SDS011;2153;47.744;10.580;2023-11-22T05:41:24;16.10;;;5.37;;
4278;SDS011;2153;47.744;10.580;2023-11-22T05:43:51;16.43;;;5.97;;
4278;SDS011;2153;47.744;10.580;2023-11-22T05:46:18;17.20;;;6.00;;
4278;SDS011;2153;47.744;10.580;2023-11-22T05:48:46;17.73;;;6.93;;
4278;SDS011;2153;47.744;10.580;2023-11-22T05:51:15;16.53;;;5.60;;
4278;SDS011;2153;47.744;10.580;2023-11-22T05:53:41;16.57;;;5.27;;
4278;SDS011;2153;47.744;10.580;2023-11-22T05:56:08;13.53;;;3.83;;
4278;SDS011;2153;47.744;10.580;2023-11-22T05:58:35;13.60;;;4.03;;
4278;SDS011;2153;47.744;10.580;2023-11-22T06:01:03;13.47;;;3.27;;
4278;SDS011;2153;47.744;10.580;2023-11-22T06:03:30;13.10;;;3.30;;
4278;SDS011;2153;47.744;10.580;2023-11-22T06:05:57;13.20;;;4.27;;
4278;SDS011;2153;47.744;10.580;2023-11-22T06:08:25;14.50;;;4.63;;
4278;SDS011;2153;47.744;10.580;2023-11-22T06:10:52;17.80;;;6.23;;
4278;SDS011;2153;47.744;10.580;2023-11-22T06:13:22;17.83;;;6.87;;
4278;SDS011;2153;47.744;10.580;2023-11-22T06:15:48;20.27;;;6.40;;
4278;SDS011;2153;47.744;10.580;2023-11-22T06:18:15;17.70;;;6.43;;
4278;SDS011;2153;47.744;10.580;2023-11-22T06:20:42;29.57;;;6.30;;
4278;SDS011;2153;47.744;10.580;2023-11-22T06:23:09;18.43;;;6.40;;
4278;SDS011;2153;47.744;10.580;2023-11-22T06:25:37;24.83;;;7.33;;
4278;SDS011;2153;47.744;10.580;2023-11-22T06:28:05;17.70;;;7.10;;
4278;SDS011;2153;47.744;10.580;2023-11-22T06:30:31;16.50;;;5.87;;
4278;SDS011;2153;47.744;10.580;2023-11-22T06:32:58;19.07;;;7.53;;
4278;SDS011;2153;47.744;10.580;2023-11-22T06:35:25;17.63;;;6.47;;
4278;SDS011;2153;47.744;10.580;2023-11-22T06:37:52;17.70;;;5.97;;
4278;SDS011;2153;47.744;10.580;2023-11-22T06:40:18;19.10;;;6.50;;
4278;SDS011;2153;47.744;10.580;2023-11-22T06:42:47;16.87;;;6.57;;
4278;SDS011;2153;47.744;10.580;2023-11-22T06:45:13;14.83;;;5.00;;
4278;SDS011;2153;47.744;10.580;2023-11-22T06:47:40;16.23;;;5.87;;
4278;SDS011;2153;47.744;10.580;2023-11-22T06:50:07;15.30;;;5.57;;
4278;SDS011;2153;47.744;10.580;2023-11-22T06:52:35;15.50;;;4.97;;
4278;SDS011;2153;47.744;10.580;2023-11-22T06:55:03;15.40;;;5.60;;
4278;SDS011;2153;47.744;10.580;2023-11-22T06:57:30;22.53;;;5.87;;
4278;SDS011;2153;47.744;10.580;2023-11-22T06:59:58;15.80;;;5.03;;
4278;SDS011;2153;47.744;10.580;2023-11-22T07:02:26;18.20;;;5.80;;
4278;SDS011;2153;47.744;10.580;2023-11-22T07:04:52;15.23;;;5.10;;
4278;SDS011;2153;47.744;10.580;2023-11-22T07:07:19;15.13;;;5.00;;
4278;SDS011;2153;47.744;10.580;2023-11-22T07:09:46;14.83;;;5.30;;
4278;SDS011;2153;47.744;10.580;2023-11-22T07:12:13;15.10;;;5.13;;
4278;SDS011;2153;47.744;10.580;2023-11-22T07:14:40;16.90;;;6.70;;
4278;SDS011;2153;47.744;10.580;2023-11-22T07:17:09;20.40;;;6.70;;
4278;SDS011;2153;47.744;10.580;2023-11-22T07:19:36;20.60;;;7.73;;
4278;SDS011;2153;47.744;10.580;2023-11-22T07:22:03;19.67;;;7.43;;
4278;SDS011;2153;47.744;10.580;2023-11-22T07:24:40;24.50;;;8.27;;
4278;SDS011;2153;47.744;10.580;2023-11-22T07:27:08;20.63;;;7.97;;
4278;SDS011;2153;47.744;10.580;2023-11-22T07:29:37;20.30;;;8.77;;
4278;SDS011;2153;47.744;10.580;2023-11-22T07:32:04;18.13;;;6.30;;
4278;SDS011;2153;47.744;10.580;2023-11-22T07:34:32;19.07;;;7.87;;
4278;SDS011;2153;47.744;10.580;2023-11-22T07:36:59;18.03;;;7.13;;
4278;SDS011;2153;47.744;10.580;2023-11-22T07:39:26;19.80;;;7.63;;
4278;SDS011;2153;47.744;10.580;2023-11-22T07:41:53;22.20;;;6.63;;
4278;SDS011;2153;47.744;10.580;2023-11-22T07:44:20;19.30;;;6.30;;
4278;SDS011;2153;47.744;10.580;2023-11-22T07:46:47;17.80;;;5.77;;
4278;SDS011;2153;47.744;10.580;2023-11-22T07:49:14;19.43;;;7.43;;
4278;SDS011;2153;47.744;10.580;2023-11-22T07:51:42;18.60;;;6.90;;
4278;SDS011;2153;47.744;10.580;2023-11-22T07:54:11;19.47;;;7.70;;
4278;SDS011;2153;47.744;10.580;2023-11-22T07:56:40;18.07;;;6.70;;
4278;SDS011;2153;47.744;10.580;2023-11-22T07:59:08;18.03;;;6.70;;
4278;SDS011;2153;47.744;10.580;2023-11-22T08:01:35;22.00;;;6.43;;
4278;SDS011;2153;47.744;10.580;2023-11-22T08:04:03;19.10;;;7.50;;
4278;SDS011;2153;47.744;10.580;2023-11-22T08:06:30;17.87;;;6.80;;
4278;SDS011;2153;47.744;10.580;2023-11-22T08:08:58;19.73;;;6.87;;
4278;SDS011;2153;47.744;10.580;2023-11-22T08:11:26;17.43;;;6.90;;
4278;SDS011;2153;47.744;10.580;2023-11-22T08:13:53;18.10;;;6.80;;
4278;SDS011;2153;47.744;10.580;2023-11-22T08:16:22;19.83;;;7.67;;
4278;SDS011;2153;47.744;10.580;2023-11-22T08:18:49;22.73;;;8.90;;
4278;SDS011;2153;47.744;10.580;2023-11-22T08:21:16;20.30;;;8.50;;
4278;SDS011;2153;47.744;10.580;2023-11-22T08:23:43;21.07;;;8.40;;
4278;SDS011;2153;47.744;10.580;2023-11-22T08:26:11;19.30;;;8.00;;
4278;SDS011;2153;47.744;10.580;2023-11-22T08:28:39;21.67;;;7.97;;
4278;SDS011;2153;47.744;10.580;2023-11-22T08:31:06;17.50;;;7.10;;
4278;SDS011;2153;47.744;10.580;2023-11-22T08:33:34;20.70;;;8.07;;
4278;SDS011;2153;47.744;10.580;2023-11-22T08:36:00;19.97;;;7.33;;
4278;SDS011;2153;47.744;10.580;2023-11-22T08:38:29;20.70;;;8.60;;
4278;SDS011;2153;47.744;10.580;2023-11-22T08:40:58;19.67;;;7.37;;
4278;SDS011;2153;47.744;10.580;2023-11-22T08:43:28;20.23;;;7.60;;
4278;SDS011;2153;47.744;10.580;2023-11-22T08:45:56;19.07;;;7.30;;
4278;SDS011;2153;47.744;10.580;2023-11-22T08:48:23;19.00;;;6.60;;
4278;SDS011;2153;47.744;10.580;2023-11-22T08:50:50;19.27;;;6.17;;
4278;SDS011;2153;47.744;10.580;2023-11-22T08:53:18;17.50;;;6.80;;
4278;SDS011;2153;47.744;10.580;2023-11-22T08:55:45;17.83;;;6.27;;
4278;SDS011;2153;47.744;10.580;2023-11-22T08:58:13;16.70;;;6.60;;
4278;SDS011;2153;47.744;10.580;2023-11-22T09:00:41;20.17;;;7.83;;
4278;SDS011;2153;47.744;10.580;2023-11-22T09:03:10;17.93;;;6.03;;
4278;SDS011;2153;47.744;10.580;2023-11-22T09:05:37;19.50;;;6.67;;
4278;SDS011;2153;47.744;10.580;2023-11-22T09:08:04;16.60;;;5.80;;
4278;SDS011;2153;47.744;10.580;2023-11-22T09:10:31;18.00;;;5.37;;
4278;SDS011;2153;47.744;10.580;2023-11-22T09:12:58;16.47;;;5.80;;
4278;SDS011;2153;47.744;10.580;2023-11-22T09:15:25;19.07;;;6.90;;
4278;SDS011;2153;47.744;10.580;2023-11-22T09:17:55;19.83;;;7.67;;
4278;SDS011;2153;47.744;10.580;2023-11-22T09:20:23;19.70;;;6.87;;
4278;SDS011;2153;47.744;10.580;2023-11-22T09:22:50;23.50;;;8.37;;
4278;SDS011;2153;47.744;10.580;2023-11-22T09:25:19;20.00;;;7.63;;
4278;SDS011;2153;47.744;10.580;2023-11-22T09:27:46;22.00;;;8.33;;
4278;SDS011;2153;47.744;10.580;2023-11-22T09:30:16;19.57;;;7.70;;
4278;SDS011;2153;47.744;10.580;2023-11-22T09:32:58;21.80;;;7.47;;
4278;SDS011;2153;47.744;10.580;2023-11-22T09:35:25;22.40;;;8.30;;
4278;SDS011;2153;47.744;10.580;2023-11-22T09:37:54;22.17;;;7.90;;
4278;SDS011;2153;47.744;10.580;2023-11-22T09:40:21;19.40;;;7.20;;
4278;SDS011;2153;47.744;10.580;2023-11-22T09:42:48;19.87;;;7.40;;
4278;SDS011;2153;47.744;10.580;2023-11-22T09:45:17;19.70;;;6.87;;
4278;SDS011;2153;47.744;10.580;2023-11-22T09:47:45;18.73;;;6.73;;
4278;SDS011;2153;47.744;10.580;2023-11-22T09:50:17;16.10;;;5.37;;
4278;SDS011;2153;47.744;10.580;2023-11-22T09:52:46;15.00;;;5.27;;
4278;SDS011;2153;47.744;10.580;2023-11-22T09:55:17;17.40;;;5.37;;
4278;SDS011;2153;47.744;10.580;2023-11-22T09:57:45;15.17;;;5.60;;
4278;SDS011;2153;47.744;10.580;2023-11-22T10:00:12;17.33;;;6.40;;
4278;SDS011;2153;47.744;10.580;2023-11-22T10:02:41;16.30;;;6.13;;
4278;SDS011;2153;47.744;10.580;2023-11-22T10:05:08;16.87;;;6.13;;
4278;SDS011;2153;47.744;10.580;2023-11-22T10:07:37;20.20;;;6.67;;
4278;SDS011;2153;47.744;10.580;2023-11-22T10:10:04;17.90;;;6.30;;
4278;SDS011;2153;47.744;10.580;2023-11-22T10:12:33;17.47;;;6.27;;
4278;SDS011;2153;47.744;10.580;2023-11-22T10:15:11;14.63;;;5.40;;
4278;SDS011;2153;47.744;10.580;2023-11-22T10:17:38;16.33;;;6.57;;
4278;SDS011;2153;47.744;10.580;2023-11-22T10:20:05;14.73;;;5.40;;
4278;SDS011;2153;47.744;10.580;2023-11-22T10:22:46;18.40;;;6.17;;
4278;SDS011;2153;47.744;10.580;2023-11-22T10:25:14;15.53;;;5.77;;
4278;SDS011;2153;47.744;10.580;2023-11-22T10:27:43;14.40;;;5.20;;
4278;SDS011;2153;47.744;10.580;2023-11-22T10:30:11;16.70;;;6.20;;
4278;SDS011;2153;47.744;10.580;2023-11-22T10:32:38;18.80;;;5.70;;
4278;SDS011;2153;47.744;10.580;2023-11-22T10:35:05;16.73;;;5.77;;
4278;SDS011;2153;47.744;10.580;2023-11-22T10:37:32;14.77;;;5.50;;
4278;SDS011;2153;47.744;10.580;2023-11-22T10:40:01;17.50;;;6.70;;
4278;SDS011;2153;47.744;10.580;2023-11-22T10:42:30;17.00;;;6.73;;
4278;SDS011;2153;47.744;10.580;2023-11-22T10:44:57;16.60;;;6.30;;
4278;SDS011;2153;47.744;10.580;2023-11-22T10:47:28;16.30;;;6.50;;
4278;SDS011;2153;47.744;10.580;2023-11-22T10:49:56;17.00;;;6.30;;
4278;SDS011;2153;47.744;10.580;2023-11-22T10:52:26;18.77;;;6.63;;
4278;SDS011;2153;47.744;10.580;2023-11-22T10:54:55;18.13;;;6.87;;
4278;SDS011;2153;47.744;10.580;2023-11-22T10:57:29;18.27;;;7.27;;
4278;SDS011;2153;47.744;10.580;2023-11-22T10:59:57;18.57;;;7.60;;
4278;SDS011;2153;47.744;10.580;2023-11-22T11:02:31;18.03;;;7.07;;
4278;SDS011;2153;47.744;10.580;2023-11-22T11:05:05;19.50;;;7.77;;
4278;SDS011;2153;47.744;10.580;2023-11-22T11:07:41;19.90;;;7.43;;
4278;SDS011;2153;47.744;10.580;2023-11-22T11:10:11;20.30;;;8.17;;
4278;SDS011;2153;47.744;10.580;2023-11-22T11:12:40;17.60;;;7.67;;
4278;SDS011;2153;47.744;10.580;2023-11-22T11:15:08;19.57;;;8.50;;
4278;SDS011;2153;47.744;10.580;2023-11-22T11:17:35;21.40;;;9.30;;
4278;SDS011;2153;47.744;10.580;2023-11-22T11:20:05;20.37;;;8.33;;
4278;SDS011;2153;47.744;10.580;2023-11-22T11:22:32;20.93;;;9.20;;
4278;SDS011;2153;47.744;10.580;2023-11-22T11:25:00;18.47;;;7.87;;
4278;SDS011;2153;47.744;10.580;2023-11-22T11:27:32;18.60;;;8.07;;
4278;SDS011;2153;47.744;10.580;2023-11-22T11:30:02;19.67;;;8.20;;
4278;SDS011;2153;47.744;10.580;2023-11-22T11:33:08;21.83;;;9.57;;
4278;SDS011;2153;47.744;10.580;2023-11-22T11:35:38;21.13;;;8.93;;
4278;SDS011;2153;47.744;10.580;2023-11-22T11:38:05;21.70;;;9.87;;
4278;SDS011;2153;47.744;10.580;2023-11-22T11:40:34;21.80;;;10.07;;
4278;SDS011;2153;47.744;10.580;2023-11-22T11:43:01;21.40;;;9.70;;
4278;SDS011;2153;47.744;10.580;2023-11-22T11:45:29;19.83;;;9.00;;
4278;SDS011;2153;47.744;10.580;2023-11-22T11:47:56;20.73;;;9.17;;
4278;SDS011;2153;47.744;10.580;2023-11-22T11:50:23;19.20;;;9.33;;
4278;SDS011;2153;47.744;10.580;2023-11-22T11:52:51;20.17;;;8.30;;
4278;SDS011;2153;47.744;10.580;2023-11-22T11:55:18;20.60;;;9.33;;
4278;SDS011;2153;47.744;10.580;2023-11-22T11:57:45;21.30;;;8.70;;
4278;SDS011;2153;47.744;10.580;2023-11-22T12:00:13;19.93;;;8.53;;
4278;SDS011;2153;47.744;10.580;2023-11-22T12:02:41;19.10;;;8.43;;
4278;SDS011;2153;47.744;10.580;2023-11-22T12:05:08;19.63;;;8.67;;
4278;SDS011;2153;47.744;10.580;2023-11-22T12:07:35;20.60;;;8.90;;
4278;SDS011;2153;47.744;10.580;2023-11-22T12:10:02;22.90;;;10.73;;
4278;SDS011;2153;47.744;10.580;2023-11-22T12:12:31;19.50;;;9.00;;
4278;SDS011;2153;47.744;10.580;2023-11-22T12:14:57;21.23;;;9.70;;
4278;SDS011;2153;47.744;10.580;2023-11-22T12:17:25;23.47;;;9.87;;
4278;SDS011;2153;47.744;10.580;2023-11-22T12:19:54;23.03;;;10.27;;
4278;SDS011;2153;47.744;10.580;2023-11-22T12:22:36;21.37;;;9.53;;
4278;SDS011;2153;47.744;10.580;2023-11-22T12:25:03;19.73;;;8.40;;
4278;SDS011;2153;47.744;10.580;2023-11-22T12:27:31;20.73;;;9.73;;
4278;SDS011;2153;47.744;10.580;2023-11-22T12:29:57;22.60;;;9.70;;
4278;SDS011;2153;47.744;10.580;2023-11-22T12:32:24;23.37;;;10.07;;
4278;SDS011;2153;47.744;10.580;2023-11-22T12:34:51;21.27;;;9.23;;
4278;SDS011;2153;47.744;10.580;2023-11-22T12:37:21;22.27;;;9.93;;
4278;SDS011;2153;47.744;10.580;2023-11-22T12:39:48;22.03;;;8.73;;
4278;SDS011;2153;47.744;10.580;2023-11-22T12:42:15;20.60;;;8.90;;
4278;SDS011;2153;47.744;10.580;2023-11-22T12:44:48;22.10;;;9.13;;
4278;SDS011;2153;47.744;10.580;2023-11-22T12:47:30;23.25;;;10.65;;
4278;SDS011;2153;47.744;10.580;2023-11-22T12:50:00;21.95;;;10.85;;
4278;SDS011;2153;47.744;10.580;2023-11-22T12:52:28;20.57;;;9.00;;
4278;SDS011;2153;47.744;10.580;2023-11-22T12:54:57;22.27;;;9.67;;
4278;SDS011;2153;47.744;10.580;2023-11-22T12:57:24;19.90;;;9.07;;
4278;SDS011;2153;47.744;10.580;2023-11-22T12:59:51;20.20;;;9.00;;
4278;SDS011;2153;47.744;10.580;2023-11-22T13:02:18;23.55;;;10.00;;
4278;SDS011;2153;47.744;10.580;2023-11-22T13:04:45;21.05;;;8.80;;
4278;SDS011;2153;47.744;10.580;2023-11-22T13:07:11;20.70;;;9.70;;
4278;SDS011;2153;47.744;10.580;2023-11-22T13:09:39;21.20;;;9.00;;
4278;SDS011;2153;47.744;10.580;2023-11-22T13:12:06;20.50;;;9.00;;
4278;SDS011;2153;47.744;10.580;2023-11-22T13:14:33;20.85;;;8.80;;
4278;SDS011;2153;47.744;10.580;2023-11-22T13:17:03;20.55;;;8.55;;
4278;SDS011;2153;47.744;10.580;2023-11-22T13:19:31;22.87;;;9.50;;
4278;SDS011;2153;47.744;10.580;2023-11-22T13:21:58;20.35;;;8.30;;
4278;SDS011;2153;47.744;10.580;2023-11-22T13:24:25;20.95;;;9.25;;
4278;SDS011;2153;47.744;10.580;2023-11-22T13:26:53;22.33;;;8.60;;
4278;SDS011;2153;47.744;10.580;2023-11-22T13:29:19;19.10;;;8.70;;
4278;SDS011;2153;47.744;10.580;2023-11-22T13:31:46;20.75;;;9.00;;
4278;SDS011;2153;47.744;10.580;2023-11-22T13:34:13;21.40;;;8.90;;
4278;SDS011;2153;47.744;10.580;2023-11-22T13:36:39;21.17;;;9.50;;
4278;SDS011;2153;47.744;10.580;2023-11-22T13:39:06;17.90;;;8.85;;
4278;SDS011;2153;47.744;10.580;2023-11-22T13:41:32;20.20;;;8.50;;
4278;SDS011;2153;47.744;10.580;2023-11-22T14:33:10;20.70;;;9.00;;
4278;SDS011;2153;47.744;10.580;2023-11-22T14:35:38;20.90;;;8.53;;
4278;SDS011;2153;47.744;10.580;2023-11-22T14:38:08;20.83;;;8.80;;
4278;SDS011;2153;47.744;10.580;2023-11-22T14:55:21;19.73;;;8.50;;
4278;SDS011;2153;47.744;10.580;2023-11-22T14:57:50;23.03;;;10.30;;
4278;SDS011;2153;47.744;10.580;2023-11-22T15:00:19;20.97;;;9.30;;
4278;SDS011;2153;47.744;10.580;2023-11-22T15:02:45;21.10;;;9.00;;
4278;SDS011;2153;47.744;10.580;2023-11-22T15:05:14;20.07;;;8.73;;
4278;SDS011;2153;47.744;10.580;2023-11-22T15:07:42;24.97;;;9.37;;
4278;SDS011;2153;47.744;10.580;2023-11-22T15:42:02;21.70;;;9.60;;
4278;SDS011;2153;47.744;10.580;2023-11-22T15:44:31;21.05;;;9.30;;
4278;SDS011;2153;47.744;10.580;2023-11-22T15:46:59;20.70;;;8.90;;
4278;SDS011;2153;47.744;10.580;2023-11-22T15:49:29;22.25;;;9.90;;
4278;SDS011;2153;47.744;10.580;2023-11-22T15:51:56;24.17;;;10.50;;
4278;SDS011;2153;47.744;10.580;2023-11-22T15:54:23;23.93;;;10.97;;
4278;SDS011;2153;47.744;10.580;2023-11-22T15:56:49;23.87;;;11.97;;
4278;SDS011;2153;47.744;10.580;2023-11-22T15:59:16;24.53;;;12.40;;
4278;SDS011;2153;47.744;10.580;2023-11-22T16:01:44;24.53;;;10.90;;
4278;SDS011;2153;47.744;10.580;2023-11-22T16:04:11;22.50;;;10.03;;
4278;SDS011;2153;47.744;10.580;2023-11-22T16:06:38;26.23;;;10.33;;
4278;SDS011;2153;47.744;10.580;2023-11-22T16:09:05;22.27;;;10.80;;
4278;SDS011;2153;47.744;10.580;2023-11-22T16:11:32;27.37;;;11.23;;
4278;SDS011;2153;47.744;10.580;2023-11-22T16:13:59;22.17;;;10.23;;
4278;SDS011;2153;47.744;10.580;2023-11-22T16:16:25;22.90;;;10.90;;
4278;SDS011;2153;47.744;10.580;2023-11-22T16:18:54;27.27;;;11.37;;
4278;SDS011;2153;47.744;10.580;2023-11-22T16:21:20;23.80;;;10.50;;
4278;SDS011;2153;47.744;10.580;2023-11-22T16:23:49;22.00;;;10.10;;